Time;durP1;ratioP1;P1;durP2;ratioP2;P2;SDS_P1;SDS_P2;PMS_P1;PMS_P2;Temp;Humidity;BMP_temperature;BMP_pressure;BME280_temperature;BME280_humidity;BME280_pressure;Samples;Min_cycle;Max_cycle;Signal;HPM_P1;HPM_P2
2020/12/21 00:01:59;;;;;;;;;;;22.20;40.20;;;;;;1561258;75;813;-72
2020/12/21 00:04:01;;;;;;;;;;;22.20;40.20;;;;;;1563659;74;760;-74
2020/12/21 00:06:03;;;;;;;;;;;22.20;40.20;;;;;;1550134;74;1924;-74
2020/12/21 00:08:05;;;;;;;;;;;22.20;40.20;;;;;;1526389;76;1309;-71
2020/12/21 00:10:07;;;;;;;;;;;22.30;40.20;;;;;;1554319;75;1188;-73
2020/12/21 00:12:08;;;;;;;;;;;22.30;40.20;;;;;;1554265;75;788;-73
2020/12/21 00:14:10;;;;;;;;;;;22.30;40.20;;;;;;1554460;75;719;-72
2020/12/21 00:16:12;;;;;;;;;;;22.20;40.00;;;;;;1555748;74;768;-71
2020/12/21 00:18:14;;;;;;;;;;;22.30;40.30;;;;;;1552812;75;849;-71
2020/12/21 00:20:17;;;;;;;;;;;22.20;40.20;;;;;;1560096;75;1066;-71
2020/12/21 00:22:19;;;;;;;;;;;22.20;40.30;;;;;;1549534;75;775;-74
2020/12/21 00:24:21;;;;;;;;;;;22.20;40.30;;;;;;1563655;75;737;-72
2020/12/21 00:26:23;;;;;;;;;;;22.30;40.40;;;;;;1549447;75;1924;-70
2020/12/21 00:28:25;;;;;;;;;;;22.30;40.30;;;;;;1562329;74;748;-70
2020/12/21 00:30:27;;;;;;;;;;;22.20;40.40;;;;;;1560720;75;1132;-70
2020/12/21 00:32:28;;;;;;;;;;;22.30;40.40;;;;;;1541145;75;757;-71
2020/12/21 00:34:30;;;;;;;;;;;22.30;40.40;;;;;;1555268;75;732;-71
2020/12/21 00:36:34;;;;;;;;;;;22.30;40.40;;;;;;1562831;75;769;-71
2020/12/21 00:38:36;;;;;;;;;;;22.30;40.30;;;;;;1560097;74;1140;-73
2020/12/21 00:40:38;;;;;;;;;;;22.30;40.40;;;;;;1558853;75;745;-73
2020/12/21 00:42:39;;;;;;;;;;;22.30;40.40;;;;;;1563107;75;704;-71
2020/12/21 00:44:41;;;;;;;;;;;22.30;40.30;;;;;;1555663;75;724;-72
2020/12/21 00:46:43;;;;;;;;;;;22.30;40.30;;;;;;1550759;75;1951;-71
2020/12/21 00:48:45;;;;;;;;;;;22.40;40.40;;;;;;1545876;74;1161;-72
2020/12/21 00:50:47;;;;;;;;;;;22.40;40.30;;;;;;1559292;75;758;-71
2020/12/21 00:52:49;;;;;;;;;;;22.40;40.40;;;;;;1552188;75;711;-70
2020/12/21 00:54:51;;;;;;;;;;;22.30;40.50;;;;;;1546602;75;701;-70
2020/12/21 00:56:54;;;;;;;;;;;22.30;40.50;;;;;;1562726;74;723;-70
2020/12/21 00:58:56;;;;;;;;;;;22.30;40.50;;;;;;1554863;75;1337;-72
2020/12/21 01:00:59;;;;;;;;;;;22.30;40.60;;;;;;1557646;75;758;-72
2020/12/21 01:03:01;;;;;;;;;;;22.30;40.50;;;;;;1556511;75;730;-70
2020/12/21 01:05:02;;;;;;;;;;;22.40;40.50;;;;;;1560533;74;801;-70
2020/12/21 01:07:05;;;;;;;;;;;22.40;40.50;;;;;;1560965;75;1934;-69
2020/12/21 01:09:10;;;;;;;;;;;22.40;40.40;;;;;;1563178;74;1143;-70
2020/12/21 01:11:10;;;;;;;;;;;22.30;40.40;;;;;;1559214;75;1504;-70
2020/12/21 01:13:12;;;;;;;;;;;22.30;40.40;;;;;;1564473;74;711;-72
2020/12/21 01:15:14;;;;;;;;;;;22.40;40.40;;;;;;1557257;74;773;-71
2020/12/21 01:17:16;;;;;;;;;;;22.30;40.50;;;;;;1560864;75;1001;-70
2020/12/21 01:19:18;;;;;;;;;;;22.30;40.40;;;;;;1560423;74;1138;-70
2020/12/21 01:21:24;;;;;;;;;;;22.30;40.40;;;;;;1554113;75;783;-70
2020/12/21 01:23:26;;;;;;;;;;;22.40;40.60;;;;;;1555466;75;880;-71
2020/12/21 01:25:28;;;;;;;;;;;22.30;40.50;;;;;;1560260;75;728;-70
2020/12/21 01:27:29;;;;;;;;;;;22.40;40.50;;;;;;1558561;75;1939;-71
2020/12/21 01:29:31;;;;;;;;;;;22.40;40.80;;;;;;1562589;75;1142;-72
2020/12/21 01:31:33;;;;;;;;;;;22.30;40.80;;;;;;1556120;75;766;-70
2020/12/21 01:33:35;;;;;;;;;;;22.30;40.80;;;;;;1560890;75;729;-71
2020/12/21 01:35:37;;;;;;;;;;;22.30;40.70;;;;;;1562206;75;728;-72
2020/12/21 01:37:39;;;;;;;;;;;22.30;40.60;;;;;;1561331;75;753;-70
2020/12/21 01:39:48;;;;;;;;;;;22.40;40.50;;;;;;1560969;75;1149;-71
2020/12/21 01:41:44;;;;;;;;;;;22.40;40.50;;;;;;1556667;74;1683;-72
2020/12/21 01:43:46;;;;;;;;;;;22.40;40.50;;;;;;1558408;75;749;-71
2020/12/21 01:45:49;;;;;;;;;;;22.40;40.50;;;;;;1559165;75;789;-69
2020/12/21 01:47:51;;;;;;;;;;;22.40;40.50;;;;;;1557099;76;1925;-69
2020/12/21 01:49:52;;;;;;;;;;;22.40;40.50;;;;;;1558580;75;1140;-71
2020/12/21 01:51:54;;;;;;;;;;;22.40;40.50;;;;;;1560787;75;764;-71
2020/12/21 01:53:56;;;;;;;;;;;22.40;40.50;;;;;;1561700;75;722;-72
2020/12/21 01:55:58;;;;;;;;;;;22.40;40.70;;;;;;1560043;75;930;-71
2020/12/21 01:58:00;;;;;;;;;;;22.40;40.70;;;;;;1552586;75;718;-72
2020/12/21 02:00:02;;;;;;;;;;;22.40;40.80;;;;;;1558260;75;1162;-73
2020/12/21 02:02:04;;;;;;;;;;;22.40;40.80;;;;;;1556985;75;752;-72
2020/12/21 02:04:06;;;;;;;;;;;22.40;40.90;;;;;;1542926;75;678;-71
2020/12/21 02:06:08;;;;;;;;;;;22.40;40.90;;;;;;1551112;75;780;-72
2020/12/21 02:08:10;;;;;;;;;;;22.40;40.90;;;;;;1561199;75;1947;-73
2020/12/21 02:10:12;;;;;;;;;;;22.40;40.90;;;;;;1548263;74;1133;-76
2020/12/21 02:12:13;;;;;;;;;;;22.40;40.90;;;;;;1541369;75;779;-72
2020/12/21 02:14:15;;;;;;;;;;;22.40;40.90;;;;;;1559105;74;771;-72
2020/12/21 02:16:17;;;;;;;;;;;22.40;40.90;;;;;;1558085;75;747;-70
2020/12/21 02:18:19;;;;;;;;;;;22.40;40.80;;;;;;1556673;75;704;-71
2020/12/21 02:20:35;;;;;;;;;;;22.50;40.90;;;;;;1554085;74;1125;-72
2020/12/21 02:22:33;;;;;;;;;;;22.40;40.90;;;;;;1550945;75;1196;-71
2020/12/21 02:24:35;;;;;;;;;;;22.40;40.90;;;;;;1562914;75;711;-74
2020/12/21 02:26:37;;;;;;;;;;;22.40;40.90;;;;;;1560929;74;1935;-72
2020/12/21 02:28:39;;;;;;;;;;;22.40;41.00;;;;;;1561014;75;1172;-72
2020/12/21 02:30:41;;;;;;;;;;;22.40;41.10;;;;;;1558599;75;710;-71
2020/12/21 02:32:43;;;;;;;;;;;22.40;41.00;;;;;;1559930;75;707;-71
2020/12/21 02:34:45;;;;;;;;;;;22.40;41.10;;;;;;1559687;76;770;-71
2020/12/21 02:36:47;;;;;;;;;;;22.40;41.20;;;;;;1562254;75;772;-72
2020/12/21 02:38:48;;;;;;;;;;;22.40;41.20;;;;;;1559629;75;1135;-74
2020/12/21 02:40:50;;;;;;;;;;;22.40;41.10;;;;;;1547630;74;880;-71
2020/12/21 02:42:52;;;;;;;;;;;22.40;41.10;;;;;;1552763;75;776;-71
2020/12/21 02:44:54;;;;;;;;;;;22.40;41.20;;;;;;1549556;75;773;-71
2020/12/21 02:46:56;;;;;;;;;;;22.40;41.10;;;;;;1548263;76;1938;-71
2020/12/21 02:48:58;;;;;;;;;;;22.40;41.20;;;;;;1559983;75;1155;-71
2020/12/21 02:51:00;;;;;;;;;;;22.30;41.20;;;;;;1562341;75;730;-71
2020/12/21 02:53:02;;;;;;;;;;;22.40;41.20;;;;;;1558576;74;656;-67
2020/12/21 02:55:04;;;;;;;;;;;22.40;41.20;;;;;;1556663;75;779;-71
2020/12/21 02:57:06;;;;;;;;;;;22.50;41.30;;;;;;1561078;75;715;-70
2020/12/21 02:59:08;;;;;;;;;;;22.40;41.20;;;;;;1560828;75;1175;-71
2020/12/21 03:01:10;;;;;;;;;;;22.50;41.30;;;;;;1544408;75;709;-71
2020/12/21 03:03:12;;;;;;;;;;;22.40;41.30;;;;;;1552818;75;711;-71
2020/12/21 03:05:13;;;;;;;;;;;22.40;41.30;;;;;;1554215;75;811;-71
2020/12/21 03:07:15;;;;;;;;;;;22.40;41.30;;;;;;1556102;75;1943;-71
2020/12/21 03:09:17;;;;;;;;;;;22.40;41.30;;;;;;1545615;75;1103;-72
2020/12/21 03:11:19;;;;;;;;;;;22.40;41.40;;;;;;1553351;74;819;-72
2020/12/21 03:13:21;;;;;;;;;;;22.40;41.30;;;;;;1560928;75;767;-70
2020/12/21 03:15:23;;;;;;;;;;;22.40;41.30;;;;;;1563118;75;759;-70
2020/12/21 03:17:25;;;;;;;;;;;22.40;41.20;;;;;;1557856;75;721;-71
2020/12/21 03:19:27;;;;;;;;;;;22.50;41.10;;;;;;1569015;72;3092;-72
2020/12/21 03:21:28;;;;;;;;;;;22.50;41.00;;;;;;1644964;71;682;-72
2020/12/21 03:23:30;;;;;;;;;;;22.50;41.00;;;;;;1638134;71;783;-72
2020/12/21 03:25:32;;;;;;;;;;;22.50;41.00;;;;;;1590986;73;695;-72
2020/12/21 03:27:35;;;;;;;;;;;22.40;40.80;;;;;;1624774;72;1934;-72
2020/12/21 03:29:37;;;;;;;;;;;22.50;41.00;;;;;;1630552;72;1192;-72
2020/12/21 03:31:39;;;;;;;;;;;22.50;41.00;;;;;;1619827;73;728;-72
2020/12/21 03:33:41;;;;;;;;;;;22.40;40.90;;;;;;1606536;73;755;-71
2020/12/21 03:35:43;;;;;;;;;;;22.40;40.90;;;;;;1606788;73;779;-71
2020/12/21 03:37:45;;;;;;;;;;;22.50;41.10;;;;;;1593245;74;782;-71
2020/12/21 03:39:47;;;;;;;;;;;22.40;41.10;;;;;;1600535;74;1093;-72
2020/12/21 03:41:48;;;;;;;;;;;22.30;41.20;;;;;;1588063;73;631;-71
2020/12/21 03:43:50;;;;;;;;;;;22.30;41.30;;;;;;1621953;72;784;-72
2020/12/21 03:45:52;;;;;;;;;;;22.40;41.50;;;;;;1584443;74;728;-70
2020/12/21 03:47:54;;;;;;;;;;;22.40;41.70;;;;;;1606733;74;1938;-71
2020/12/21 03:49:56;;;;;;;;;;;22.30;41.90;;;;;;1604493;73;1175;-73
2020/12/21 03:51:58;;;;;;;;;;;22.40;42.00;;;;;;1606294;74;780;-72
2020/12/21 03:54:00;;;;;;;;;;;22.40;42.00;;;;;;1603167;73;708;-72
2020/12/21 03:56:02;;;;;;;;;;;22.40;42.10;;;;;;1619086;72;717;-72
2020/12/21 03:58:04;;;;;;;;;;;22.40;42.10;;;;;;1610792;73;719;-72
2020/12/21 04:00:06;;;;;;;;;;;22.40;42.30;;;;;;1616737;73;1181;-71
2020/12/21 04:02:08;;;;;;;;;;;22.30;42.50;;;;;;1619066;72;779;-70
2020/12/21 04:04:10;;;;;;;;;;;22.30;42.60;;;;;;1586372;73;769;-71
2020/12/21 04:06:12;;;;;;;;;;;22.20;42.60;;;;;;1619438;72;765;-71
2020/12/21 04:08:14;;;;;;;;;;;22.20;42.70;;;;;;1616013;72;1933;-71
2020/12/21 04:10:16;;;;;;;;;;;22.20;42.80;;;;;;1618716;72;1096;-71
2020/12/21 04:12:18;;;;;;;;;;;22.20;42.80;;;;;;1620577;72;727;-72
2020/12/21 04:14:20;;;;;;;;;;;22.20;42.90;;;;;;1616637;72;632;-71
2020/12/21 04:16:21;;;;;;;;;;;22.20;43.00;;;;;;1620295;72;790;-71
2020/12/21 04:18:23;;;;;;;;;;;22.20;43.30;;;;;;1614784;72;775;-70
2020/12/21 04:20:25;;;;;;;;;;;22.20;43.30;;;;;;1621003;72;1158;-72
2020/12/21 04:22:27;;;;;;;;;;;22.20;43.30;;;;;;1618676;72;768;-72
2020/12/21 04:24:29;;;;;;;;;;;22.20;43.20;;;;;;1617674;72;757;-72
2020/12/21 04:26:31;;;;;;;;;;;22.20;43.40;;;;;;1614466;72;769;-71
2020/12/21 04:28:33;;;;;;;;;;;22.20;43.40;;;;;;1616771;72;1929;-72
2020/12/21 04:30:34;;;;;;;;;;;22.20;43.40;;;;;;1612989;72;1146;-71
2020/12/21 04:32:36;;;;;;;;;;;22.20;43.40;;;;;;1619692;72;730;-72
2020/12/21 04:34:38;;;;;;;;;;;22.20;43.50;;;;;;1623098;72;743;-72
2020/12/21 04:36:40;;;;;;;;;;;22.20;43.60;;;;;;1614198;72;804;-72
2020/12/21 04:38:42;;;;;;;;;;;22.20;43.60;;;;;;1605974;73;714;-70
2020/12/21 04:40:45;;;;;;;;;;;22.20;43.90;;;;;;1606609;73;1122;-72
2020/12/21 04:42:49;;;;;;;;;;;22.20;43.70;;;;;;1604224;73;1977;-73
2020/12/21 04:44:51;;;;;;;;;;;22.20;43.60;;;;;;1599217;73;1240;-71
2020/12/21 04:46:53;;;;;;;;;;;22.30;43.80;;;;;;1605173;74;772;-72
2020/12/21 04:48:55;;;;;;;;;;;22.30;43.70;;;;;;1618156;72;1936;-72
2020/12/21 04:50:57;;;;;;;;;;;22.30;43.80;;;;;;1615749;72;733;-72
2020/12/21 04:52:59;;;;;;;;;;;22.30;43.70;;;;;;1617028;72;729;-72
2020/12/21 04:55:01;;;;;;;;;;;22.20;43.60;;;;;;1620562;72;722;-72
2020/12/21 04:57:03;;;;;;;;;;;22.30;43.90;;;;;;1618128;72;714;-72
2020/12/21 04:59:04;;;;;;;;;;;22.30;43.80;;;;;;1615930;72;1115;-72
2020/12/21 05:01:06;;;;;;;;;;;22.30;44.20;;;;;;1619246;72;731;-72
2020/12/21 05:03:08;;;;;;;;;;;22.30;43.90;;;;;;1621849;72;662;-72
2020/12/21 05:05:10;;;;;;;;;;;22.30;44.00;;;;;;1615850;72;732;-72
2020/12/21 05:07:12;;;;;;;;;;;22.30;43.90;;;;;;1615415;72;737;-74
2020/12/21 05:09:14;;;;;;;;;;;22.30;43.90;;;;;;1616591;72;1920;-72
2020/12/21 05:11:16;;;;;;;;;;;22.30;43.90;;;;;;1621551;72;760;-73
2020/12/21 05:13:18;;;;;;;;;;;22.40;43.80;;;;;;1619139;72;714;-72
2020/12/21 05:15:20;;;;;;;;;;;22.30;43.80;;;;;;1619502;72;778;-71
2020/12/21 05:17:22;;;;;;;;;;;22.30;44.00;;;;;;1621097;72;761;-73
2020/12/21 05:19:24;;;;;;;;;;;22.30;43.90;;;;;;1588249;74;1109;-72
2020/12/21 05:21:27;;;;;;;;;;;22.30;44.10;;;;;;1589343;73;802;-73
2020/12/21 05:23:29;;;;;;;;;;;22.30;44.00;;;;;;1620090;72;855;-74
2020/12/21 05:25:30;;;;;;;;;;;22.40;43.90;;;;;;1622011;72;735;-71
2020/12/21 05:27:32;;;;;;;;;;;22.40;43.70;;;;;;1615292;72;1936;-73
2020/12/21 05:29:34;;;;;;;;;;;22.40;43.70;;;;;;1618998;72;1171;-73
2020/12/21 05:31:36;;;;;;;;;;;22.40;43.80;;;;;;1620618;72;729;-72
2020/12/21 05:33:41;;;;;;;;;;;22.40;43.80;;;;;;1619522;72;745;-72
2020/12/21 05:35:43;;;;;;;;;;;22.30;43.90;;;;;;1617889;72;797;-72
2020/12/21 05:37:45;;;;;;;;;;;22.40;43.80;;;;;;1619664;72;794;-73
2020/12/21 05:39:53;;;;;;;;;;;22.40;43.90;;;;;;1619754;72;1146;-73
2020/12/21 05:41:55;;;;;;;;;;;22.40;43.90;;;;;;1615848;72;740;-72
2020/12/21 05:43:59;;;;;;;;;;;22.40;44.00;;;;;;1615111;72;784;-72
2020/12/21 05:46:03;;;;;;;;;;;22.40;43.90;;;;;;1617296;72;1094;-72
2020/12/21 05:48:04;;;;;;;;;;;22.40;43.90;;;;;;1618078;72;1949;-71
2020/12/21 05:50:07;;;;;;;;;;;22.40;44.00;;;;;;1619040;72;1122;-70
2020/12/21 05:52:08;;;;;;;;;;;22.40;44.00;;;;;;1620238;72;776;-72
2020/12/21 05:54:10;;;;;;;;;;;22.40;44.10;;;;;;1620484;72;794;-73
2020/12/21 05:56:12;;;;;;;;;;;22.40;44.00;;;;;;1619943;72;717;-72
2020/12/21 05:58:14;;;;;;;;;;;22.40;44.10;;;;;;1618346;72;700;-73
2020/12/21 06:00:16;;;;;;;;;;;22.40;44.30;;;;;;1618464;72;1134;-73
2020/12/21 06:02:18;;;;;;;;;;;22.40;44.20;;;;;;1606468;72;749;-73
2020/12/21 06:04:20;;;;;;;;;;;22.50;44.20;;;;;;1619603;72;666;-73
2020/12/21 06:06:22;;;;;;;;;;;22.50;44.10;;;;;;1624003;72;767;-72
2020/12/21 06:08:24;;;;;;;;;;;22.50;44.00;;;;;;1622780;72;1931;-73
2020/12/21 06:10:26;;;;;;;;;;;22.60;44.10;;;;;;1609755;72;1151;-72
2020/12/21 06:12:29;;;;;;;;;;;22.50;44.10;;;;;;1614660;72;752;-71
2020/12/21 06:14:31;;;;;;;;;;;22.60;44.00;;;;;;1600899;74;794;-72
2020/12/21 06:16:33;;;;;;;;;;;22.70;44.30;;;;;;1592887;73;752;-73
2020/12/21 06:18:35;;;;;;;;;;;22.60;44.20;;;;;;1594861;74;787;-71
2020/12/21 06:20:43;;;;;;;;;;;22.60;44.20;;;;;;1602097;74;1159;-71
2020/12/21 06:22:45;;;;;;;;;;;22.70;44.20;;;;;;1604543;72;801;-72
2020/12/21 06:24:46;;;;;;;;;;;22.80;44.20;;;;;;1617670;72;842;-71
2020/12/21 06:26:48;;;;;;;;;;;22.70;44.10;;;;;;1623056;72;734;-72
2020/12/21 06:28:50;;;;;;;;;;;22.70;44.10;;;;;;1615752;72;1929;-72
2020/12/21 06:30:52;;;;;;;;;;;22.80;44.00;;;;;;1580062;73;1215;-72
2020/12/21 06:32:56;;;;;;;;;;;22.80;44.10;;;;;;1614346;72;776;-73
2020/12/21 06:34:58;;;;;;;;;;;22.80;44.10;;;;;;1609978;72;1681;-72
2020/12/21 06:37:00;;;;;;;;;;;22.80;43.90;;;;;;1593822;73;709;-72
2020/12/21 06:39:03;;;;;;;;;;;22.80;43.90;;;;;;1596163;73;1127;-72
2020/12/21 06:41:06;;;;;;;;;;;22.80;43.90;;;;;;1598345;73;744;-72
2020/12/21 06:43:10;;;;;;;;;;;22.80;43.80;;;;;;1601401;73;1733;-72
2020/12/21 06:45:12;;;;;;;;;;;22.80;43.90;;;;;;1602045;72;1655;-73
2020/12/21 06:47:14;;;;;;;;;;;22.80;43.90;;;;;;1612341;73;765;-72
2020/12/21 06:49:15;;;;;;;;;;;22.80;43.80;;;;;;1609889;72;1948;-72
2020/12/21 06:51:18;;;;;;;;;;;22.80;43.80;;;;;;1606764;72;752;-72
2020/12/21 06:53:20;;;;;;;;;;;22.80;43.70;;;;;;1610034;72;725;-72
2020/12/21 06:55:21;;;;;;;;;;;22.80;43.80;;;;;;1617204;72;774;-72
2020/12/21 06:57:23;;;;;;;;;;;22.80;43.80;;;;;;1613920;72;939;-72
2020/12/21 06:59:26;;;;;;;;;;;22.80;43.90;;;;;;1627257;72;1081;-73
2020/12/21 07:01:28;;;;;;;;;;;22.80;43.90;;;;;;1608157;72;733;-73
2020/12/21 07:03:30;;;;;;;;;;;22.80;43.90;;;;;;1619687;72;715;-73
2020/12/21 07:05:32;;;;;;;;;;;22.80;43.80;;;;;;1619439;72;865;-72
2020/12/21 07:07:33;;;;;;;;;;;22.80;43.80;;;;;;1615724;72;792;-73
2020/12/21 07:09:36;;;;;;;;;;;22.90;43.80;;;;;;1582649;73;1918;-73
2020/12/21 07:11:38;;;;;;;;;;;22.90;43.90;;;;;;1619580;72;898;-73
2020/12/21 07:13:40;;;;;;;;;;;23.00;43.90;;;;;;1621218;72;835;-74
2020/12/21 07:15:42;;;;;;;;;;;23.00;43.80;;;;;;1621212;72;769;-74
2020/12/21 07:17:44;;;;;;;;;;;23.00;43.80;;;;;;1607888;72;659;-74
2020/12/21 07:19:47;;;;;;;;;;;23.00;43.90;;;;;;1611898;73;1213;-73
2020/12/21 07:21:49;;;;;;;;;;;22.90;43.90;;;;;;1619332;72;770;-73
2020/12/21 07:23:50;;;;;;;;;;;22.90;43.90;;;;;;1619553;72;687;-73
2020/12/21 07:25:52;;;;;;;;;;;22.90;43.90;;;;;;1580821;73;843;-73
2020/12/21 07:27:54;;;;;;;;;;;23.00;43.90;;;;;;1589910;73;738;-73
2020/12/21 07:29:56;;;;;;;;;;;23.00;43.70;;;;;;1585885;73;1930;-72
2020/12/21 07:31:58;;;;;;;;;;;23.00;43.70;;;;;;1587306;73;679;-72
2020/12/21 07:34:03;;;;;;;;;;;23.00;43.70;;;;;;1580498;73;709;-73
2020/12/21 07:36:05;;;;;;;;;;;23.00;43.70;;;;;;1579684;75;796;-72
2020/12/21 07:38:13;;;;;;;;;;;23.00;43.70;;;;;;1580328;73;832;-72
2020/12/21 07:40:20;;;;;;;;;;;23.00;43.80;;;;;;1590752;73;1177;-72
2020/12/21 07:42:22;;;;;;;;;;;23.00;43.80;;;;;;1611845;73;720;-72
2020/12/21 07:44:25;;;;;;;;;;;23.00;43.70;;;;;;1611917;72;771;-73
2020/12/21 07:46:26;;;;;;;;;;;23.00;43.70;;;;;;1619992;73;1016;-72
2020/12/21 07:48:28;;;;;;;;;;;23.00;43.60;;;;;;1610563;72;1953;-72
2020/12/21 07:50:30;;;;;;;;;;;23.00;43.60;;;;;;1620315;72;1111;-72
2020/12/21 07:52:32;;;;;;;;;;;23.10;43.70;;;;;;1612536;73;767;-72
2020/12/21 07:54:36;;;;;;;;;;;23.00;43.50;;;;;;1607060;73;707;-72
2020/12/21 07:56:38;;;;;;;;;;;23.10;43.80;;;;;;1613645;73;1940;-72
2020/12/21 07:58:39;;;;;;;;;;;23.00;43.80;;;;;;1619980;73;784;-74
2020/12/21 08:00:43;;;;;;;;;;;23.00;43.60;;;;;;1615296;72;1112;-73
2020/12/21 08:02:45;;;;;;;;;;;23.00;43.70;;;;;;1618358;72;1693;-73
2020/12/21 08:04:47;;;;;;;;;;;23.00;43.80;;;;;;1620810;72;679;-73
2020/12/21 08:06:48;;;;;;;;;;;23.00;43.80;;;;;;1618460;73;737;-72
2020/12/21 08:08:51;;;;;;;;;;;23.00;43.80;;;;;;1618852;72;1926;-73
2020/12/21 08:10:56;;;;;;;;;;;23.00;43.80;;;;;;1618021;72;1103;-73
2020/12/21 08:12:58;;;;;;;;;;;22.90;43.90;;;;;;1614261;72;766;-71
2020/12/21 08:15:00;;;;;;;;;;;23.00;43.80;;;;;;1583689;73;667;-71
2020/12/21 08:17:11;;;;;;;;;;;22.90;43.90;;;;;;1576600;73;724;-71
2020/12/21 08:19:22;;;;;;;;;;;23.00;43.90;;;;;;1630570;72;1092;-72
2020/12/21 08:21:24;;;;;;;;;;;22.90;43.80;;;;;;1608822;73;941;-72
2020/12/21 08:23:27;;;;;;;;;;;22.90;43.90;;;;;;1603455;73;800;-72
2020/12/21 08:25:29;;;;;;;;;;;22.90;43.80;;;;;;1597089;73;764;-73
2020/12/21 08:27:30;;;;;;;;;;;22.90;43.80;;;;;;1606792;73;800;-72
2020/12/21 08:29:32;;;;;;;;;;;22.90;43.70;;;;;;1606865;73;1944;-71
2020/12/21 08:31:36;;;;;;;;;;;22.90;43.70;;;;;;1606732;73;680;-72
2020/12/21 08:33:38;;;;;;;;;;;22.90;43.70;;;;;;1615161;72;1113;-71
2020/12/21 08:35:40;;;;;;;;;;;22.90;43.80;;;;;;1617136;72;695;-71
2020/12/21 08:37:42;;;;;;;;;;;22.90;44.10;;;;;;1600607;73;707;-72
2020/12/21 08:39:43;;;;;;;;;;;22.80;44.10;;;;;;1614227;72;1138;-71
2020/12/21 08:41:46;;;;;;;;;;;22.70;44.30;;;;;;1618072;72;722;-69
2020/12/21 08:43:48;;;;;;;;;;;22.70;44.30;;;;;;1609512;72;758;-66
2020/12/21 08:45:50;;;;;;;;;;;22.70;44.40;;;;;;1580834;73;738;-69
2020/12/21 08:47:52;;;;;;;;;;;22.70;44.40;;;;;;1580356;73;760;-69
2020/12/21 08:49:54;;;;;;;;;;;22.80;44.20;;;;;;1611059;72;1936;-68
2020/12/21 08:52:06;;;;;;;;;;;22.80;43.90;;;;;;1585528;73;745;-70
2020/12/21 08:54:06;;;;;;;;;;;22.90;43.70;;;;;;1616453;72;1281;-69
2020/12/21 08:56:11;;;;;;;;;;;22.90;43.40;;;;;;1624961;72;706;-69
2020/12/21 08:58:13;;;;;;;;;;;23.00;43.10;;;;;;1616894;72;724;-71
2020/12/21 09:00:14;;;;;;;;;;;23.00;42.50;;;;;;1620356;72;1126;-69
2020/12/21 09:02:16;;;;;;;;;;;22.90;42.50;;;;;;1615653;72;747;-70
2020/12/21 09:04:18;;;;;;;;;;;22.80;42.30;;;;;;1619061;72;693;-72
2020/12/21 09:06:21;;;;;;;;;;;22.90;42.30;;;;;;1608815;72;755;-69
2020/12/21 09:08:23;;;;;;;;;;;22.80;42.40;;;;;;1619223;72;788;-70
2020/12/21 09:10:25;;;;;;;;;;;22.80;42.10;;;;;;1611166;72;1932;-68
2020/12/21 09:12:27;;;;;;;;;;;22.80;42.30;;;;;;1614328;72;753;-69
2020/12/21 09:14:29;;;;;;;;;;;22.80;42.30;;;;;;1619997;72;773;-69
2020/12/21 09:16:31;;;;;;;;;;;22.80;42.40;;;;;;1619190;72;727;-66
2020/12/21 09:18:33;;;;;;;;;;;22.80;42.40;;;;;;1619151;72;712;-67
2020/12/21 09:20:35;;;;;;;;;;;22.90;42.20;;;;;;1565188;72;2101;-73
2020/12/21 09:22:37;;;;;;;;;;;22.90;42.00;;;;;;1515433;77;800;-72
2020/12/21 09:24:38;;;;;;;;;;;22.90;41.80;;;;;;1513220;77;715;-70
2020/12/21 09:26:40;;;;;;;;;;;23.00;41.50;;;;;;1549773;76;718;-73
2020/12/21 09:28:42;;;;;;;;;;;22.90;41.30;;;;;;1538033;76;775;-74
2020/12/21 09:30:44;;;;;;;;;;;22.90;41.20;;;;;;1515835;76;1949;-73
2020/12/21 09:32:46;;;;;;;;;;;22.90;41.20;;;;;;1550042;75;730;-74
2020/12/21 09:34:48;;;;;;;;;;;22.90;41.00;;;;;;1532767;76;758;-74
2020/12/21 09:36:50;;;;;;;;;;;22.90;41.00;;;;;;1542804;76;685;-74
2020/12/21 09:38:52;;;;;;;;;;;23.00;41.00;;;;;;1530179;76;690;-74
2020/12/21 09:40:54;;;;;;;;;;;23.00;40.70;;;;;;1554111;75;1126;-75
2020/12/21 09:42:56;;;;;;;;;;;22.90;40.80;;;;;;1544892;75;715;-72
2020/12/21 09:44:58;;;;;;;;;;;22.90;40.70;;;;;;1537626;76;760;-72
2020/12/21 09:47:00;;;;;;;;;;;22.90;40.50;;;;;;1533196;76;753;-75
2020/12/21 09:49:03;;;;;;;;;;;22.90;40.60;;;;;;1520799;76;747;-72
2020/12/21 09:51:05;;;;;;;;;;;22.90;40.40;;;;;;1530795;76;1899;-73
2020/12/21 09:53:07;;;;;;;;;;;22.80;40.30;;;;;;1533690;76;772;-74
2020/12/21 09:55:11;;;;;;;;;;;22.80;40.30;;;;;;1528381;76;684;-74
2020/12/21 09:57:12;;;;;;;;;;;22.80;40.20;;;;;;1521076;76;967;-73
2020/12/21 09:59:14;;;;;;;;;;;22.80;40.30;;;;;;1525260;76;703;-75
2020/12/21 10:01:16;;;;;;;;;;;22.90;40.30;;;;;;1530664;76;1161;-75
2020/12/21 10:03:18;;;;;;;;;;;22.80;40.00;;;;;;1531718;76;735;-75
2020/12/21 10:05:20;;;;;;;;;;;22.90;40.10;;;;;;1544519;76;808;-74
2020/12/21 10:07:22;;;;;;;;;;;22.80;39.90;;;;;;1519634;76;636;-74
2020/12/21 10:09:23;;;;;;;;;;;22.80;39.70;;;;;;1557947;75;1938;-74
2020/12/21 10:11:26;;;;;;;;;;;22.80;39.80;;;;;;1557754;75;705;-75
2020/12/21 10:13:28;;;;;;;;;;;22.90;39.80;;;;;;1519370;76;717;-74
2020/12/21 10:15:30;;;;;;;;;;;22.80;39.70;;;;;;1517762;76;759;-73
2020/12/21 10:17:32;;;;;;;;;;;22.80;39.70;;;;;;1527017;76;654;-73
2020/12/21 10:19:34;;;;;;;;;;;22.80;39.70;;;;;;1535253;76;1183;-73
2020/12/21 10:21:36;;;;;;;;;;;22.80;39.60;;;;;;1528530;76;760;-74
2020/12/21 10:23:37;;;;;;;;;;;22.80;39.50;;;;;;1521204;76;703;-74
2020/12/21 10:25:39;;;;;;;;;;;22.80;39.50;;;;;;1524399;76;765;-70
2020/12/21 10:27:41;;;;;;;;;;;22.80;39.60;;;;;;1531041;76;727;-75
2020/12/21 10:29:43;;;;;;;;;;;22.80;39.80;;;;;;1530356;76;1964;-77
2020/12/21 10:31:45;;;;;;;;;;;22.90;40.20;;;;;;1515039;76;734;-80
2020/12/21 10:33:47;;;;;;;;;;;22.90;39.90;;;;;;1520498;76;703;-79
2020/12/21 10:35:49;;;;;;;;;;;22.90;39.60;;;;;;1528172;76;745;-76
2020/12/21 10:37:51;;;;;;;;;;;22.90;39.30;;;;;;1524975;75;730;-79
2020/12/21 10:39:52;;;;;;;;;;;22.90;38.90;;;;;;1548510;75;1135;-79
2020/12/21 10:41:54;;;;;;;;;;;22.90;38.50;;;;;;1547031;75;1074;-77
2020/12/21 10:43:56;;;;;;;;;;;22.90;38.00;;;;;;1568685;74;712;-81
2020/12/21 10:45:58;;;;;;;;;;;22.90;37.80;;;;;;1536688;75;692;-82
2020/12/21 10:48:00;;;;;;;;;;;22.90;37.50;;;;;;1536239;75;727;-78
2020/12/21 10:50:02;;;;;;;;;;;22.90;37.20;;;;;;1542998;75;1957;-76
2020/12/21 10:52:04;;;;;;;;;;;22.90;37.10;;;;;;1546432;75;711;-77
2020/12/21 10:54:05;;;;;;;;;;;22.80;36.90;;;;;;1544347;75;738;-78
2020/12/21 10:56:13;;;;;;;;;;;22.80;36.60;;;;;;1547105;75;746;-79
2020/12/21 10:58:15;;;;;;;;;;;22.80;36.40;;;;;;1545132;75;723;-77
2020/12/21 11:00:17;;;;;;;;;;;22.80;36.40;;;;;;1544857;75;1163;-80
2020/12/21 11:02:19;;;;;;;;;;;22.80;36.40;;;;;;1564704;75;716;-76
2020/12/21 11:04:21;;;;;;;;;;;22.70;36.30;;;;;;1540734;75;590;-78
2020/12/21 11:06:23;;;;;;;;;;;22.70;36.40;;;;;;1544095;75;712;-79
2020/12/21 11:08:25;;;;;;;;;;;22.70;36.40;;;;;;1538476;75;685;-77
2020/12/21 11:10:28;;;;;;;;;;;22.70;36.30;;;;;;1533566;75;1948;-80
2020/12/21 11:12:30;;;;;;;;;;;22.60;36.30;;;;;;1536761;75;702;-77
2020/12/21 11:14:32;;;;;;;;;;;22.70;36.30;;;;;;1542055;75;711;-77
2020/12/21 11:16:33;;;;;;;;;;;22.50;36.10;;;;;;1535649;75;720;-78
2020/12/21 11:18:35;;;;;;;;;;;22.50;36.20;;;;;;1531310;75;731;-78
2020/12/21 11:20:37;;;;;;;;;;;22.50;35.90;;;;;;1544855;75;1300;-77
2020/12/21 11:22:41;;;;;;;;;;;22.50;36.30;;;;;;1549117;75;853;-78
2020/12/21 11:24:43;;;;;;;;;;;22.50;36.30;;;;;;1536363;75;1025;-75
2020/12/21 11:26:44;;;;;;;;;;;22.50;36.20;;;;;;1549677;75;675;-76
2020/12/21 11:28:49;;;;;;;;;;;22.50;36.20;;;;;;1538137;75;728;-79
2020/12/21 11:30:51;;;;;;;;;;;22.40;36.00;;;;;;1540211;75;1942;-79
2020/12/21 11:32:53;;;;;;;;;;;22.40;35.40;;;;;;1535697;75;707;-79
2020/12/21 11:34:55;;;;;;;;;;;22.40;35.70;;;;;;1531427;75;698;-78
2020/12/21 11:36:57;;;;;;;;;;;22.40;35.70;;;;;;1540503;75;699;-79
2020/12/21 11:38:59;;;;;;;;;;;22.40;35.60;;;;;;1548561;75;728;-77
2020/12/21 11:41:00;;;;;;;;;;;22.40;35.50;;;;;;1540467;75;1094;-77
2020/12/21 11:43:02;;;;;;;;;;;22.40;35.60;;;;;;1543843;75;545;-74
2020/12/21 11:45:05;;;;;;;;;;;22.40;35.60;;;;;;1544348;75;671;-77
2020/12/21 11:47:10;;;;;;;;;;;22.40;35.60;;;;;;1536632;75;702;-77
2020/12/21 11:49:12;;;;;;;;;;;22.30;35.50;;;;;;1533742;75;625;-77
2020/12/21 11:51:16;;;;;;;;;;;22.30;35.60;;;;;;1539658;75;1920;-75
2020/12/21 11:53:18;;;;;;;;;;;22.30;35.50;;;;;;1541171;75;699;-78
2020/12/21 11:55:20;;;;;;;;;;;22.30;35.60;;;;;;1549399;75;711;-79
2020/12/21 11:57:22;;;;;;;;;;;22.20;35.70;;;;;;1545843;75;708;-78
2020/12/21 11:59:23;;;;;;;;;;;22.30;36.00;;;;;;1538582;75;1142;-78
2020/12/21 12:01:25;;;;;;;;;;;22.20;36.00;;;;;;1537323;75;702;-78
2020/12/21 12:03:27;;;;;;;;;;;22.20;36.00;;;;;;1544367;75;669;-79
2020/12/21 12:05:29;;;;;;;;;;;22.20;35.90;;;;;;1543169;75;724;-78
2020/12/21 12:07:31;;;;;;;;;;;22.10;36.00;;;;;;1542894;75;711;-81
2020/12/21 12:09:33;;;;;;;;;;;22.30;36.00;;;;;;1563063;75;1155;-80